• Join FlightAware (Why Join?)
  • Login
  • US Flag 
06:23PM EDT


 

Airport Tracker/Info


-or-


 

Live Flight TrackerFlight Track Log ✈ AWE4651 ✈ 06-May-2014 ✈ KMHT - KDCA

Flight Track Log - Related Links

Times and Time Zones

All times are in EDT time to prevent confusion due to time zone crossing. See the AWE4651 flight status page for this flight to view local times or setup timezone preferences in your user account.

Time Position Orientation Groundspeed Altitude Reporting Facility
EDT Latitude Longitude Course Direction KTS MPH feet Rate Location/Type
08:21AM 42.9500 -71.4167 228° Southwest 152 175 900  Level KA90
08:22AM 42.9833 -71.3833 36° Northeast 178 205 2,400 2,220 Climbing KA90
08:23AM 42.7588 -71.6979 228° Southwest  Level Estimated
08:23AM 43.0219 -71.3025 57° Northeast 241 277 5,700  Level Boston Center
08:24AM 42.7006 -71.7849 228° Southwest  Level Estimated
08:24AM 43.0406 -71.2072 75° East 255 293 8,600  Level Boston Center
08:25AM 42.6424 -71.8718 228° Southwest  Level Estimated
08:25AM 43.0636 -71.0969 74° East 276 318 10,800  Level Boston Center
08:26AM 42.5841 -71.9585 228° Southwest  Level Estimated
08:26AM 43.0689 -70.9764 87° East 329 379 12,900  Level Boston Center
08:27AM 42.9972 -70.8947 140° Southeast 335 386 14,800 1,800 Climbing Boston Center
08:28AM 42.9075 -70.9200 192° South 331 381 16,600 1,500 Climbing Boston Center
08:29AM 42.8144 -70.9650 200° South 352 405 17,900 1,200 Climbing Boston Center
08:30AM 42.7253 -71.0086 200° South 360 414 19,200 1,380 Climbing Boston Center
08:31AM 42.6281 -71.0561 200° South 370 426 20,800 1,320 Climbing Boston Center
08:32AM 42.5294 -71.1031 199° South 371 427 21,900 1,020 Climbing Boston Center
08:33AM 42.4319 -71.1575 202° Southwest 380 437 22,900 1,200 Climbing Boston Center
08:34AM 42.3750 -71.2994 242° Southwest 363 418 24,400 1,020 Climbing Boston Center
08:35AM 42.3236 -71.4186 240° Southwest 362 417 25,000 540 Climbing Boston Center
08:36AM 42.2681 -71.5369 238° Southwest 370 426 25,600 540 Climbing Boston Center
08:37AM 42.2094 -71.6575 237° Southwest 378 435 26,200 540 Climbing Boston Center
08:38AM 42.1536 -71.7797 238° Southwest 378 435 26,800 540 Climbing Boston Center
08:39AM 42.0958 -71.9019 238° Southwest 383 441 27,400 540 Climbing Boston Center
08:40AM 42.0381 -72.0244 238° Southwest 384 442 28,000 540 Climbing Boston Center
08:41AM 41.9806 -72.1458 238° Southwest 384 442 28,600 540 Climbing Boston Center
08:42AM 41.9222 -72.2661 237° Southwest 384 442 29,200 540 Climbing Boston Center
08:43AM 41.8653 -72.3858 237° Southwest 384 442 29,800 540 Climbing Boston Center
08:44AM 41.8083 -72.5031 237° Southwest 379 436 30,400 480 Climbing Boston Center
08:45AM 41.7519 -72.6194 237° Southwest 376 433 30,900 480 Climbing Boston Center
08:46AM 41.6961 -72.7369 238° Southwest 376 433 31,400 540 Climbing Boston Center
08:47AM 41.6286 -72.8756 237° Southwest 373 429 32,000 240 Climbing Boston Center
08:48AM 41.5722 -72.9908 237° Southwest 371 427 32,000  Level Boston Center
08:49AM 41.5164 -73.1050 237° Southwest 380 437 32,000  Level Boston Center
08:50AM 41.4581 -73.2239 237° Southwest 383 441 32,000  Level Boston Center
08:51AM 41.3978 -73.3447 236° Southwest 391 450 32,000  Level Boston Center
08:52AM 41.3381 -73.4675 237° Southwest 394 453 32,000  Level Boston Center
08:53AM 41.2769 -73.5886 236° Southwest 395 455 32,000  Level Boston Center
08:54AM 41.2089 -73.7042 232° Southwest 396 456 32,000  Level Boston Center
08:56AM 41.1281 -73.8414 232° Southwest 396 456 32,000  Level Boston Center
08:57AM 41.0597 -73.9531 231° Southwest 395 455 32,000  Level Boston Center
08:58AM 40.9928 -74.0675 232° Southwest 395 455 32,000 -540 Level Boston Center
08:59AM 40.9244 -74.1789 231° Southwest 394 453 31,000 -1,080 Descending Boston Center
09:00AM 40.8586 -74.2897 232° Southwest 388 447 29,900 -1,080 Descending Boston Center
09:01AM 40.7947 -74.3947 231° Southwest 377 434 28,900 -960 Descending Boston Center
09:02AM 40.7322 -74.4992 232° Southwest 369 425 27,900 -1,020 Descending Boston Center
09:03AM 40.6711 -74.6003 231° Southwest 359 413 26,900 -1,020 Descending Boston Center
09:04AM 40.6325 -74.7092 245° Southwest 334 384 25,900 -1,200 Descending Boston Center
09:05AM 40.5881 -74.8400 246° West 330 380 24,500 -1,320 Descending Boston Center
09:06AM 40.5464 -74.9481 243° Southwest 331 381 23,300 -1,200 Descending Boston Center
09:07AM 40.4914 -75.0508 235° Southwest 344 396 22,100 -600 Descending Boston Center
09:08AM 40.4294 -75.1717 236° Southwest 346 398 22,000 -60 Descending New York Center
09:09AM 40.3572 -75.2678 225° Southwest 358 412 22,000  Level New York Center
09:10AM 40.2869 -75.3611 225° Southwest 363 418 22,000  Level New York Center
09:11AM 40.2142 -75.4597 226° Southwest 368 423 22,000  Level New York Center
09:12AM 40.1397 -75.5525 224° Southwest 373 429 22,000  Level New York Center
09:13AM 40.0628 -75.6475 223° Southwest 373 429 22,000  Level New York Center
09:14AM 39.9861 -75.7369 222° Southwest 373 429 22,000 -240 Level New York Center
09:15AM 39.9192 -75.8406 230° Southwest 373 429 21,600 -720 Descending New York Center
09:16AM 39.8583 -75.9442 233° Southwest 373 429 20,600 -1,080 Descending New York Center
09:17AM 39.8036 -76.0456 235° Southwest 361 415 19,500 -1,440 Descending New York Center
09:18AM 39.7406 -76.1517 232° Southwest 346 398 17,800 -1,680 Descending New York Center
09:19AM 39.6767 -76.2250 221° Southwest 351 404 16,200 -1,740 Descending New York Center
09:21AM 39.5000 -76.3833 215° Southwest 337 388 12,300 -1,380 Descending Potomac TRACON
09:22AM 39.4167 -76.4500 212° Southwest 329 379 12,000 -300 Descending Potomac TRACON
09:23AM 39.3333 -76.5167 212° Southwest 340 391 11,800 -660 Descending Potomac TRACON
09:24AM 39.2667 -76.5833 218° Southwest 339 390 10,700 -960 Descending Potomac TRACON
09:25AM 39.1833 -76.6500 212° Southwest 322 371 10,000 -360 Descending Potomac TRACON
09:26AM 39.1167 -76.7333 224° Southwest 315 362 10,000  Level Potomac TRACON
09:27AM 39.0500 -76.8000 218° Southwest 324 373 10,000 -840 Level Potomac TRACON
09:28AM 39.0000 -76.8667 226° Southwest 289 333 8,500 -1,800 Descending Potomac TRACON
09:29AM 38.9500 -76.9167 218° Southwest 276 318 6,800 -1,320 Descending Potomac TRACON
09:30AM 38.8833 -76.9500 201° Southwest 282 325 6,100 -960 Descending Potomac TRACON
09:31AM 38.8000 -76.9500 180° South 273 314 4,900 -1,140 Descending Potomac TRACON
09:32AM 38.7333 -76.9500 180° South 251 289 4,000 -1,500 Descending Potomac TRACON
09:33AM 38.7167 -77.0167 252° West 242 278 2,100 -1,020 Descending Potomac TRACON
09:34AM 38.7667 -77.0333 345° North 200 230 2,000 -600 Descending Potomac TRACON
09:35AM 38.8167 -77.0167 15° North 165 190 1,000 -1,140 Descending Potomac TRACON